createdAt,value
2019-05-12T00:00:39.082Z,8.00
2019-05-12T00:03:19.886Z,7.90
2019-05-12T00:05:49.291Z,7.90
2019-05-12T00:08:38.208Z,7.90
2019-05-12T00:11:19.878Z,7.90
2019-05-12T00:14:01.659Z,7.90
2019-05-12T00:16:43.564Z,7.80
2019-05-12T00:19:25.381Z,7.80
2019-05-12T00:22:07.751Z,7.80
2019-05-12T00:24:49.395Z,7.80
2019-05-12T00:27:30.928Z,7.80
2019-05-12T00:30:14.091Z,7.80
2019-05-12T00:32:57.676Z,7.80
2019-05-12T00:35:39.540Z,7.80
2019-05-12T00:38:21.624Z,7.90
2019-05-12T00:41:06.027Z,8.00
2019-05-12T00:43:48.752Z,8.00
2019-05-12T00:46:30.122Z,8.10
2019-05-12T00:49:11.871Z,8.10
2019-05-12T00:51:53.814Z,8.20
2019-05-12T00:54:37.584Z,8.30
2019-05-12T00:57:19.441Z,8.30
2019-05-12T01:00:01.041Z,8.30
2019-05-12T01:02:42.929Z,8.30
2019-05-12T01:05:29.183Z,8.30
2019-05-12T01:08:09.946Z,8.20
2019-05-12T01:10:51.864Z,8.20
2019-05-12T01:13:33.023Z,8.20
2019-05-12T01:16:14.752Z,8.10
2019-05-12T01:18:58.466Z,8.10
2019-05-12T01:21:39.805Z,8.10
2019-05-12T01:24:21.050Z,8.10
2019-05-12T01:27:02.529Z,8.10
2019-05-12T01:29:44.014Z,8.10
2019-05-12T01:35:39.514Z,8.00
2019-05-12T01:38:20.662Z,8.00
2019-05-12T01:41:02.684Z,7.90
2019-05-12T01:43:32.058Z,7.90
2019-05-12T01:46:20.795Z,7.90
2019-05-12T01:49:02.055Z,7.90
2019-05-12T01:51:44.070Z,7.90
2019-05-12T01:54:27.699Z,7.80
2019-05-12T01:57:08.410Z,7.80
2019-05-12T01:59:49.947Z,7.80
2019-05-12T02:02:31.798Z,7.70
2019-05-12T02:05:13.579Z,7.70
2019-05-12T02:07:58.361Z,7.70
2019-05-12T02:10:39.211Z,7.70
2019-05-12T02:13:20.372Z,7.70
2019-05-12T02:16:02.266Z,7.70
2019-05-12T02:18:43.439Z,7.70
2019-05-12T02:21:27.790Z,7.70
2019-05-12T02:24:22.334Z,7.70
2019-05-12T02:26:51.644Z,7.60
2019-05-12T02:29:33.327Z,7.60
2019-05-12T02:32:15.369Z,7.60
2019-05-12T02:34:56.752Z,7.60
2019-05-12T02:37:38.476Z,7.50
2019-05-12T02:40:20.216Z,7.50
2019-05-12T02:42:59.920Z,7.50
2019-05-12T02:45:48.666Z,7.50
2019-05-12T02:48:29.955Z,7.40
2019-05-12T02:51:11.757Z,7.40
2019-05-12T02:53:54.563Z,7.40
2019-05-12T02:56:36.120Z,7.40
2019-05-12T02:59:17.838Z,7.40
2019-05-12T03:01:59.623Z,7.40
2019-05-12T03:04:45.166Z,7.30
2019-05-12T03:07:26.350Z,7.30
2019-05-12T03:10:08.197Z,7.30
2019-05-12T03:12:50.001Z,7.20
2019-05-12T03:15:31.313Z,7.20
2019-05-12T03:18:14.669Z,7.20
2019-05-12T03:20:55.631Z,7.10
2019-05-12T03:23:37.510Z,7.10
2019-05-12T03:26:19.473Z,7.10
2019-05-12T03:29:00.693Z,7.00
2019-05-12T03:31:47.893Z,7.00
2019-05-12T03:34:29.215Z,7.00
2019-05-12T03:37:09.820Z,7.00
2019-05-12T03:39:54.001Z,7.00
2019-05-12T03:42:35.477Z,6.90
2019-05-12T03:45:17.220Z,6.90
2019-05-12T03:47:59.062Z,6.90
2019-05-12T03:50:40.223Z,6.90
2019-05-12T03:53:24.395Z,6.80
2019-05-12T03:56:04.645Z,6.80
2019-05-12T04:01:26.620Z,6.80
2019-05-12T04:04:08.586Z,6.90
2019-05-12T04:06:50.717Z,6.90
2019-05-12T04:09:34.752Z,6.80
2019-05-12T04:12:15.089Z,6.90
2019-05-12T04:14:56.694Z,6.80
2019-05-12T04:17:39.030Z,6.90
2019-05-12T04:20:20.785Z,6.80
2019-05-12T04:23:05.906Z,6.90
2019-05-12T04:25:52.384Z,6.90
2019-05-12T04:28:28.639Z,6.90
2019-05-12T04:31:10.493Z,7.00
2019-05-12T04:33:39.886Z,7.00
2019-05-12T04:36:28.580Z,7.00
2019-05-12T04:39:10.020Z,7.00
2019-05-12T04:41:54.993Z,7.00
2019-05-12T04:44:35.327Z,7.00
2019-05-12T04:47:16.773Z,7.00
2019-05-12T04:49:58.635Z,7.00
2019-05-12T04:52:40.602Z,7.10
2019-05-12T04:55:25.672Z,7.10
2019-05-12T04:58:05.386Z,7.10
2019-05-12T05:00:47.382Z,7.20
2019-05-12T05:03:28.583Z,7.10
2019-05-12T05:06:10.446Z,7.10
2019-05-12T05:08:54.416Z,7.20
2019-05-12T05:11:35.212Z,7.20
2019-05-12T05:14:17.189Z,7.10
2019-05-12T05:17:04.404Z,7.10
2019-05-12T05:19:44.466Z,7.20
2019-05-12T05:22:26.451Z,7.20
2019-05-12T05:24:55.826Z,7.30
2019-05-12T05:27:50.387Z,7.30
2019-05-12T05:30:33.936Z,7.40
2019-05-12T05:33:15.438Z,7.40
2019-05-12T05:35:57.210Z,7.40
2019-05-12T05:38:39.346Z,7.40
2019-05-12T05:41:21.234Z,7.40
2019-05-12T05:44:04.150Z,7.40
2019-05-12T05:46:50.014Z,7.40
2019-05-12T05:49:28.546Z,7.40
2019-05-12T05:52:10.396Z,7.40
2019-05-12T05:54:53.195Z,7.40
2019-05-12T05:57:34.603Z,7.40
2019-05-12T06:00:22.807Z,7.30
2019-05-12T06:03:00.181Z,7.30
2019-05-12T06:05:43.336Z,7.30
2019-05-12T06:08:24.596Z,7.30
2019-05-12T06:11:08.525Z,7.40
2019-05-12T06:13:50.057Z,7.50
2019-05-12T06:16:31.210Z,7.50
2019-05-12T06:19:14.103Z,7.60
2019-05-12T06:21:55.655Z,7.50
2019-05-12T06:24:37.660Z,7.50
2019-05-12T06:27:20.995Z,7.60
2019-05-12T06:30:05.944Z,7.60
2019-05-12T06:32:50.118Z,7.70
2019-05-12T06:35:30.878Z,7.80
2019-05-12T06:38:13.589Z,7.90
2019-05-12T06:40:55.654Z,8.00
2019-05-12T06:43:38.834Z,8.10
2019-05-12T06:46:22.904Z,8.30
2019-05-12T06:49:11.854Z,8.30
2019-05-12T06:51:47.398Z,8.40
2019-05-12T06:54:29.147Z,8.40
2019-05-12T06:57:24.114Z,8.50
2019-05-12T06:59:55.192Z,8.60
2019-05-12T07:02:49.112Z,8.50
2019-05-12T07:05:23.140Z,8.50
2019-05-12T07:08:04.408Z,8.70
2019-05-12T07:10:51.664Z,8.80
2019-05-12T07:13:29.673Z,8.90
2019-05-12T07:16:23.026Z,8.90
2019-05-12T07:19:22.870Z,8.90
2019-05-12T07:22:04.899Z,9.00
2019-05-12T07:24:50.041Z,9.00
2019-05-12T07:27:36.686Z,9.10
2019-05-12T07:30:13.707Z,9.30
2019-05-12T07:32:59.760Z,9.50
2019-05-12T07:35:38.327Z,9.40
2019-05-12T07:38:21.277Z,9.60
2019-05-12T07:41:08.804Z,9.80
2019-05-12T07:43:50.563Z,9.90
2019-05-12T07:46:29.724Z,9.90
2019-05-12T07:48:59.142Z,9.90
2019-05-12T07:51:50.030Z,9.90
2019-05-12T07:54:53.763Z,9.80
2019-05-12T07:57:36.628Z,9.80
2019-05-12T08:00:21.528Z,9.90
2019-05-12T08:03:14.344Z,9.90
2019-05-12T08:05:51.224Z,9.90
2019-05-12T08:08:33.957Z,10.20
2019-05-12T08:11:15.078Z,10.50
2019-05-12T08:13:56.712Z,10.60
2019-05-12T08:16:38.660Z,10.80
2019-05-12T08:19:23.780Z,10.60
2019-05-12T08:22:06.378Z,10.70
2019-05-12T08:24:48.226Z,10.90
2019-05-12T08:27:29.638Z,10.80
2019-05-12T08:30:13.757Z,10.70
2019-05-12T08:33:02.521Z,10.70
2019-05-12T08:35:38.632Z,10.90
2019-05-12T08:38:20.739Z,11.10
2019-05-12T08:41:04.089Z,11.10
2019-05-12T08:43:49.542Z,11.00
2019-05-12T08:46:28.679Z,10.90
2019-05-12T08:49:08.487Z,11.00
2019-05-12T08:52:00.085Z,11.00
2019-05-12T08:55:00.130Z,10.90
2019-05-12T08:57:49.270Z,10.70
2019-05-12T09:00:24.818Z,10.80
2019-05-12T09:03:06.814Z,10.90
2019-05-12T09:05:48.395Z,10.90
2019-05-12T09:08:29.580Z,10.90
2019-05-12T09:11:13.771Z,11.00
2019-05-12T09:14:00.654Z,11.20
2019-05-12T09:16:38.283Z,11.20
2019-05-12T09:19:24.210Z,11.20
2019-05-12T09:22:04.882Z,11.20
2019-05-12T09:24:46.790Z,11.20
2019-05-12T09:27:29.926Z,11.40
2019-05-12T09:30:11.282Z,11.40
2019-05-12T09:32:55.950Z,11.40
2019-05-12T09:35:39.191Z,11.50
2019-05-12T09:38:25.565Z,11.70
2019-05-12T09:41:05.258Z,11.40
2019-05-12T09:43:50.449Z,11.20
2019-05-12T09:46:34.254Z,11.30
2019-05-12T09:49:15.136Z,11.20
2019-05-12T09:51:57.032Z,11.40
2019-05-12T09:54:40.944Z,11.30
2019-05-12T09:57:23.858Z,11.60
2019-05-12T10:00:04.900Z,11.70
2019-05-12T10:02:51.260Z,12.00
2019-05-12T10:05:30.554Z,11.80
2019-05-12T10:08:13.872Z,11.50
2019-05-12T10:10:55.686Z,11.60
2019-05-12T10:13:36.831Z,11.50
2019-05-12T10:16:18.612Z,11.60
2019-05-12T10:19:00.592Z,11.60
2019-05-12T10:21:44.050Z,11.70
2019-05-12T10:24:13.160Z,11.90
2019-05-12T10:27:03.797Z,12.00
2019-05-12T10:30:11.846Z,12.30
2019-05-12T10:32:46.802Z,12.20
2019-05-12T10:35:28.799Z,12.20
2019-05-12T10:38:10.991Z,12.50
2019-05-12T10:40:53.570Z,12.40
2019-05-12T10:43:35.171Z,12.40
2019-05-12T10:46:18.471Z,12.80
2019-05-12T10:49:00.005Z,13.50
2019-05-12T10:51:43.775Z,13.80
2019-05-12T10:54:24.555Z,13.90
2019-05-12T10:57:05.932Z,13.60
2019-05-12T10:59:48.600Z,13.70
2019-05-12T11:02:30.831Z,13.70
2019-05-12T11:05:21.456Z,13.70
2019-05-12T11:08:00.337Z,13.80
2019-05-12T11:10:39.366Z,14.00
2019-05-12T11:13:23.244Z,13.50
2019-05-12T11:16:04.497Z,13.80
2019-05-12T11:18:45.672Z,14.20
2019-05-12T11:21:27.145Z,15.90
2019-05-12T11:24:09.190Z,17.70
2019-05-12T11:26:51.013Z,18.20
2019-05-12T11:29:45.773Z,18.80
2019-05-12T11:32:18.304Z,19.50
2019-05-12T11:34:59.557Z,20.00
2019-05-12T11:37:41.334Z,18.50
2019-05-12T11:40:23.860Z,19.70
2019-05-12T11:43:05.873Z,19.40
2019-05-12T11:45:47.731Z,18.70
2019-05-12T11:48:29.039Z,20.00
2019-05-12T11:51:10.846Z,22.10
2019-05-12T11:53:52.861Z,22.60
2019-05-12T11:56:34.937Z,22.20
2019-05-12T11:59:16.850Z,23.80
2019-05-12T12:01:58.215Z,23.30
2019-05-12T12:04:46.012Z,23.50
2019-05-12T12:07:29.552Z,22.50
2019-05-12T12:10:10.967Z,23.40
2019-05-12T12:12:47.178Z,22.70
2019-05-12T12:15:36.317Z,21.20
2019-05-12T12:18:17.489Z,20.60
2019-05-12T12:21:04.222Z,21.00
2019-05-12T12:23:30.608Z,20.90
2019-05-12T12:26:38.540Z,21.80
2019-05-12T12:29:20.509Z,22.30
2019-05-12T12:32:01.722Z,21.30
2019-05-12T12:34:44.077Z,19.70
2019-05-12T12:37:25.796Z,18.30
2019-05-12T12:40:07.237Z,20.10
2019-05-12T12:42:48.387Z,22.30
2019-05-12T12:45:49.240Z,23.50
2019-05-12T12:48:30.813Z,25.10
2019-05-12T12:51:17.225Z,24.50
2019-05-12T12:53:55.633Z,25.80
2019-05-12T12:56:37.441Z,27.30
2019-05-12T12:59:19.948Z,27.90
2019-05-12T13:04:48.383Z,26.00
2019-05-12T13:07:30.321Z,26.70
2019-05-12T13:10:17.150Z,27.30
2019-05-12T13:13:01.024Z,27.00
2019-05-12T13:15:44.349Z,27.90
2019-05-12T13:18:33.173Z,28.30
2019-05-12T13:21:08.758Z,26.70
2019-05-12T13:23:51.171Z,26.20
2019-05-12T13:26:35.904Z,25.50
2019-05-12T13:29:18.261Z,25.20
2019-05-12T13:31:59.492Z,27.10
2019-05-12T13:34:43.019Z,27.50
2019-05-12T13:37:25.429Z,28.80
2019-05-12T13:40:07.748Z,28.80
2019-05-12T13:42:49.771Z,27.50
2019-05-12T13:45:33.448Z,26.30
2019-05-12T13:48:19.673Z,26.60
2019-05-12T13:51:07.490Z,26.50
2019-05-12T13:53:48.479Z,28.00
2019-05-12T13:56:32.347Z,27.70
2019-05-12T13:59:12.212Z,28.70
2019-05-12T14:01:53.919Z,28.10
2019-05-12T14:04:36.368Z,27.00
2019-05-12T14:07:20.278Z,26.60
2019-05-12T14:10:03.465Z,27.40
2019-05-12T14:12:44.411Z,26.40
2019-05-12T14:15:25.705Z,26.70
2019-05-12T14:18:10.347Z,25.10
2019-05-12T14:20:58.829Z,23.40
2019-05-12T14:23:35.260Z,22.30
2019-05-12T14:26:16.708Z,21.70
2019-05-12T14:28:57.811Z,20.70
2019-05-12T14:31:45.307Z,20.40
2019-05-12T14:34:23.625Z,20.10
2019-05-12T14:37:10.238Z,19.80
2019-05-12T14:39:50.463Z,20.20
2019-05-12T14:42:34.679Z,21.60
2019-05-12T14:45:25.674Z,21.10
2019-05-12T14:48:09.480Z,20.10
2019-05-12T14:50:50.819Z,19.00
2019-05-12T14:53:32.994Z,19.00
2019-05-12T14:56:14.940Z,20.00
2019-05-12T14:59:00.603Z,20.50
2019-05-12T15:01:56.559Z,20.20
2019-05-12T15:04:29.543Z,19.70
2019-05-12T15:07:09.938Z,19.20
2019-05-12T15:09:53.869Z,18.60
2019-05-12T15:12:36.510Z,19.70
2019-05-12T15:15:20.436Z,22.80
2019-05-12T15:18:03.441Z,24.90
2019-05-12T15:20:49.808Z,24.40
2019-05-12T15:23:32.431Z,22.40
2019-05-12T15:26:14.927Z,22.00
2019-05-12T15:28:54.251Z,23.30
2019-05-12T15:31:35.390Z,23.50
2019-05-12T15:34:16.700Z,24.10
2019-05-12T15:37:00.351Z,22.80
2019-05-12T15:39:43.928Z,21.00
2019-05-12T15:42:25.327Z,20.30
2019-05-12T15:45:12.568Z,20.50
2019-05-12T15:47:50.269Z,20.90
2019-05-12T15:50:34.049Z,22.30
2019-05-12T15:53:22.089Z,24.40
2019-05-12T15:55:57.509Z,24.10
2019-05-12T15:58:39.464Z,25.10
2019-05-12T16:01:21.439Z,24.70
2019-05-12T16:04:03.674Z,26.20
2019-05-12T16:06:53.354Z,27.10
2019-05-12T16:09:30.031Z,27.50
2019-05-12T16:12:19.943Z,27.40
2019-05-12T16:14:55.679Z,27.60
2019-05-12T16:17:37.191Z,25.60
2019-05-12T16:20:19.559Z,26.40
2019-05-12T16:23:03.857Z,26.70
2019-05-12T16:25:45.580Z,26.40
2019-05-12T16:28:27.529Z,23.00
2019-05-12T16:31:09.459Z,23.60
2019-05-12T16:33:52.909Z,23.50
2019-05-12T16:36:35.111Z,24.70
2019-05-12T16:39:16.496Z,25.70
2019-05-12T16:42:00.075Z,24.80
2019-05-12T16:44:44.001Z,24.10
2019-05-12T16:47:29.178Z,22.80
2019-05-12T16:50:15.300Z,21.20
2019-05-12T16:52:53.594Z,21.20
2019-05-12T16:55:44.863Z,22.70
2019-05-12T16:58:26.169Z,23.30
2019-05-12T17:01:03.619Z,25.70
2019-05-12T17:03:44.614Z,26.00
2019-05-12T17:06:28.601Z,25.20
2019-05-12T17:09:09.596Z,24.30
2019-05-12T17:11:53.335Z,23.00
2019-05-12T17:14:38.760Z,21.40
2019-05-12T17:17:21.009Z,20.20
2019-05-12T17:20:04.528Z,18.80
2019-05-12T17:22:54.561Z,18.70
2019-05-12T17:25:29.222Z,18.70
2019-05-12T17:28:13.118Z,18.30
2019-05-12T17:30:54.628Z,18.10
2019-05-12T17:33:39.059Z,17.60
2019-05-12T17:36:24.246Z,17.40
2019-05-12T17:39:06.295Z,17.10
2019-05-12T17:41:47.681Z,17.00
2019-05-12T17:44:31.130Z,16.90
2019-05-12T17:47:21.393Z,16.80
2019-05-12T17:50:00.418Z,16.60
2019-05-12T17:52:39.672Z,16.50
2019-05-12T17:55:20.773Z,16.30
2019-05-12T17:58:04.084Z,16.10
2019-05-12T18:00:47.699Z,15.90
2019-05-12T18:03:29.623Z,15.70
2019-05-12T18:06:11.137Z,15.60
2019-05-12T18:08:53.393Z,15.40
2019-05-12T18:11:34.594Z,15.30
2019-05-12T18:14:16.684Z,15.20
2019-05-12T18:17:02.365Z,15.10
2019-05-12T18:19:44.262Z,14.90
2019-05-12T18:22:24.771Z,14.90
2019-05-12T18:25:06.632Z,14.70
2019-05-12T18:27:50.534Z,14.60
2019-05-12T18:30:30.721Z,14.50
2019-05-12T18:33:13.741Z,14.40
2019-05-12T18:35:55.663Z,14.30
2019-05-12T18:38:37.663Z,14.20
2019-05-12T18:41:18.969Z,14.10
2019-05-12T18:44:00.885Z,14.00
2019-05-12T18:46:45.298Z,13.90
2019-05-12T18:49:25.668Z,13.90
2019-05-12T18:52:07.822Z,13.80
2019-05-12T18:54:52.180Z,13.70
2019-05-12T18:57:33.775Z,13.60
2019-05-12T19:00:16.278Z,13.60
2019-05-12T19:02:59.736Z,13.50
2019-05-12T19:05:43.323Z,13.50
2019-05-12T19:08:24.468Z,13.40
2019-05-12T19:11:19.961Z,13.30
2019-05-12T19:13:56.984Z,13.30
2019-05-12T19:16:36.821Z,13.20
2019-05-12T19:19:20.031Z,13.10
2019-05-12T19:22:06.800Z,13.00
2019-05-12T19:24:44.490Z,12.90
2019-05-12T19:27:26.319Z,12.80
2019-05-12T19:30:08.319Z,12.70
2019-05-12T19:32:52.510Z,12.60
2019-05-12T19:35:34.157Z,12.60
2019-05-12T19:38:16.256Z,12.60
2019-05-12T19:41:00.759Z,12.60
2019-05-12T19:43:45.473Z,12.50
2019-05-12T19:46:24.265Z,12.40
2019-05-12T19:49:05.998Z,12.30
2019-05-12T19:51:47.774Z,12.20
2019-05-12T19:54:32.133Z,12.10
2019-05-12T19:57:21.511Z,12.00
2019-05-12T19:59:56.678Z,11.90
2019-05-12T20:02:38.249Z,11.80
2019-05-12T20:05:19.849Z,11.70
2019-05-12T20:08:03.996Z,11.50
2019-05-12T20:10:49.380Z,11.50
2019-05-12T20:13:35.921Z,11.50
2019-05-12T20:16:21.543Z,11.40
2019-05-12T20:18:58.135Z,11.30
2019-05-12T20:21:40.014Z,11.30
2019-05-12T20:24:23.166Z,11.20
2019-05-12T20:27:04.828Z,11.10
2019-05-12T20:29:46.618Z,11.10
2019-05-12T20:32:28.060Z,11.10
2019-05-12T20:35:09.641Z,11.00
2019-05-12T20:37:54.317Z,11.00
2019-05-12T20:40:37.674Z,11.00
2019-05-12T20:43:18.289Z,11.00
2019-05-12T20:46:00.294Z,10.80
2019-05-12T20:48:44.500Z,10.80
2019-05-12T20:51:25.272Z,10.70
2019-05-12T20:54:14.131Z,10.70
2019-05-12T20:56:52.948Z,10.60
2019-05-12T20:59:34.430Z,10.50
2019-05-12T21:02:16.223Z,10.50
2019-05-12T21:05:01.147Z,10.50
2019-05-12T21:07:40.449Z,10.30
2019-05-12T21:10:26.493Z,10.20
2019-05-12T21:13:07.273Z,10.20
2019-05-12T21:15:48.722Z,10.10
2019-05-12T21:18:44.604Z,10.00
2019-05-12T21:21:14.343Z,10.00
2019-05-12T21:23:59.327Z,9.90
2019-05-12T21:26:38.664Z,9.70
2019-05-12T21:29:25.537Z,9.70
2019-05-12T21:32:12.265Z,9.70
2019-05-12T21:34:46.455Z,9.60
2019-05-12T21:37:28.526Z,9.60
2019-05-12T21:40:10.562Z,9.60
2019-05-12T21:42:53.708Z,9.60
2019-05-12T21:45:35.279Z,9.50
2019-05-12T21:48:23.654Z,9.50
2019-05-12T21:50:59.464Z,9.50
2019-05-12T21:53:43.595Z,9.50
2019-05-12T21:56:24.543Z,9.50
2019-05-12T21:59:05.922Z,9.50
2019-05-12T22:01:47.897Z,9.50
2019-05-12T22:04:32.972Z,9.40
2019-05-12T22:07:15.044Z,9.40
2019-05-12T22:09:57.741Z,9.40
2019-05-12T22:12:39.377Z,9.40
2019-05-12T22:15:24.631Z,9.30
2019-05-12T22:18:06.221Z,9.30
2019-05-12T22:20:52.310Z,9.20
2019-05-12T22:23:31.103Z,9.20
2019-05-12T22:26:12.970Z,9.10
2019-05-12T22:28:54.970Z,9.10
2019-05-12T22:31:38.687Z,9.00
2019-05-12T22:34:20.625Z,8.90
2019-05-12T22:37:03.862Z,8.90
2019-05-12T22:39:45.459Z,8.90
2019-05-12T22:42:27.040Z,8.90
2019-05-12T22:45:08.709Z,8.80
2019-05-12T22:47:55.214Z,8.80
2019-05-12T22:50:35.274Z,8.80
2019-05-12T22:53:19.328Z,8.70
2019-05-12T22:56:02.997Z,8.60
2019-05-12T22:58:44.221Z,8.50
2019-05-12T23:01:25.779Z,8.40
2019-05-12T23:04:07.835Z,8.30
2019-05-12T23:06:49.662Z,8.30
2019-05-12T23:09:33.747Z,8.20
2019-05-12T23:12:18.079Z,8.10
2019-05-12T23:15:02.814Z,8.00
2019-05-12T23:17:45.237Z,8.00
2019-05-12T23:20:25.493Z,8.00
2019-05-12T23:23:09.142Z,7.90
2019-05-12T23:25:52.022Z,7.80
2019-05-12T23:28:21.788Z,7.80
2019-05-12T23:31:10.559Z,7.80
2019-05-12T23:33:51.715Z,7.70
2019-05-12T23:36:36.476Z,7.60
2019-05-12T23:39:15.835Z,7.60
2019-05-12T23:41:57.714Z,7.50
2019-05-12T23:44:44.023Z,7.50
2019-05-12T23:47:24.355Z,7.50
2019-05-12T23:50:05.691Z,7.40
2019-05-12T23:52:47.127Z,7.40
2019-05-12T23:55:29.036Z,7.50
2019-05-12T23:58:11.013Z,7.50
